Time;durP1;ratioP1;P1;durP2;ratioP2;P2;SDS_P1;SDS_P2;PMS_P1;PMS_P2;Temp;Humidity;BMP_temperature;BMP_pressure;BME280_temperature;BME280_humidity;BME280_pressure;Samples;Min_cycle;Max_cycle;Signal;HPM_P1;HPM_P2
2023/05/03 00:02:20;;;;;;;2.37;1.77;;;;;;;;;;5059298;28;20211;-60
2023/05/03 00:04:53;;;;;;;3.20;1.80;;;;;;;;;;5059184;28;20210;-60
2023/05/03 00:07:21;;;;;;;2.30;1.80;;;;;;;;;;5058978;28;20213;-58
2023/05/03 00:09:49;;;;;;;2.30;2.10;;;;;;;;;;5059264;28;20219;-58
2023/05/03 00:12:17;;;;;;;1.93;1.83;;;;;;;;;;5058927;28;20211;-59
2023/05/03 00:14:48;;;;;;;2.57;2.03;;;;;;;;;;5058942;28;20288;-59
2023/05/03 00:17:17;;;;;;;1.90;1.80;;;;;;;;;;5057841;28;20202;-59
2023/05/03 00:19:46;;;;;;;2.50;2.20;;;;;;;;;;5058723;28;20274;-58
2023/05/03 00:22:14;;;;;;;2.93;2.10;;;;;;;;;;5058586;28;20285;-59
2023/05/03 00:24:42;;;;;;;3.63;2.17;;;;;;;;;;5058976;28;20215;-59
2023/05/03 00:27:13;;;;;;;4.30;2.40;;;;;;;;;;5058326;28;20571;-59
2023/05/03 00:29:41;;;;;;;2.50;1.90;;;;;;;;;;5058836;28;20217;-59
2023/05/03 00:32:09;;;;;;;2.70;2.20;;;;;;;;;;5058335;28;20665;-60
2023/05/03 00:34:42;;;;;;;3.87;2.30;;;;;;;;;;5058571;28;20226;-61
2023/05/03 00:37:09;;;;;;;3.07;2.37;;;;;;;;;;5058656;28;20237;-59
2023/05/03 00:39:37;;;;;;;2.60;2.17;;;;;;;;;;5058584;28;20211;-60
2023/05/03 00:42:08;;;;;;;2.43;2.10;;;;;;;;;;5058138;28;20218;-60
2023/05/03 00:44:36;;;;;;;1.60;1.50;;;;;;;;;;5058350;28;20272;-60
2023/05/03 00:50:36;;;;;;;3.50;1.77;;;;;;;;;;5058383;28;20541;-60
2023/05/03 00:53:04;;;;;;;2.23;1.90;;;;;;;;;;5058374;28;20210;-60
2023/05/03 00:55:33;;;;;;;2.17;1.97;;;;;;;;;;5060715;28;20226;-59
2023/05/03 00:58:01;;;;;;;1.90;1.70;;;;;;;;;;5053653;28;20234;-60
2023/05/03 01:00:29;;;;;;;1.70;1.60;;;;;;;;;;5058395;28;20633;-59
2023/05/03 01:02:57;;;;;;;2.43;2.00;;;;;;;;;;5058422;28;20206;-60
2023/05/03 01:05:25;;;;;;;2.47;1.67;;;;;;;;;;5058390;28;20235;-59
2023/05/03 01:08:01;;;;;;;3.13;1.87;;;;;;;;;;5058361;28;20207;-60
2023/05/03 01:10:33;;;;;;;3.00;1.93;;;;;;;;;;5058320;28;20206;-59
2023/05/03 01:13:06;;;;;;;2.33;2.20;;;;;;;;;;5058002;28;20701;-59
2023/05/03 01:15:44;;;;;;;2.60;1.90;;;;;;;;;;5058162;28;20318;-60
2023/05/03 01:18:14;;;;;;;2.43;2.13;;;;;;;;;;5057962;28;20289;-60
2023/05/03 01:20:43;;;;;;;2.83;2.23;;;;;;;;;;5057828;28;20595;-59
2023/05/03 01:23:15;;;;;;;2.20;2.03;;;;;;;;;;5058223;28;20234;-59
2023/05/03 01:25:44;;;;;;;2.97;2.30;;;;;;;;;;5058011;28;20234;-59
2023/05/03 01:31:44;;;;;;;2.37;2.17;;;;;;;;;;5057828;28;20652;-59
2023/05/03 01:34:18;;;;;;;5.73;2.80;;;;;;;;;;5057929;28;20262;-59
2023/05/03 01:36:46;;;;;;;2.60;2.40;;;;;;;;;;5057914;28;20226;-59
2023/05/03 01:39:16;;;;;;;2.50;2.30;;;;;;;;;;5057950;28;20213;-60
2023/05/03 01:41:46;;;;;;;2.93;2.67;;;;;;;;;;5057507;28;20206;-59
2023/05/03 01:44:15;;;;;;;2.87;2.30;;;;;;;;;;5057911;28;20202;-60
2023/05/03 01:46:43;;;;;;;2.60;2.40;;;;;;;;;;5057651;28;20226;-60
2023/05/03 01:49:11;;;;;;;2.37;2.17;;;;;;;;;;5057931;28;20214;-60
2023/05/03 01:51:39;;;;;;;3.47;2.47;;;;;;;;;;5057892;28;20216;-59
2023/05/03 01:54:07;;;;;;;2.93;2.60;;;;;;;;;;5057622;28;20202;-59
2023/05/03 01:56:36;;;;;;;3.50;3.20;;;;;;;;;;5057512;28;20235;-60
2023/05/03 01:59:05;;;;;;;3.17;2.97;;;;;;;;;;5057669;28;20217;-60
2023/05/03 02:01:33;;;;;;;3.23;2.93;;;;;;;;;;5057681;28;20286;-60
2023/05/03 02:04:01;;;;;;;4.03;3.40;;;;;;;;;;5057388;28;20680;-60
2023/05/03 02:06:29;;;;;;;4.77;3.13;;;;;;;;;;5057560;28;20223;-60
2023/05/03 02:08:57;;;;;;;3.63;2.93;;;;;;;;;;5057440;28;20723;-59
2023/05/03 02:11:25;;;;;;;3.07;2.77;;;;;;;;;;5057495;28;20237;-60
2023/05/03 02:13:53;;;;;;;3.40;2.93;;;;;;;;;;5057425;28;20583;-59
2023/05/03 02:16:22;;;;;;;3.80;3.40;;;;;;;;;;5057115;28;20732;-60
2023/05/03 02:18:50;;;;;;;4.47;2.97;;;;;;;;;;5057287;28;20203;-60
2023/05/03 02:21:18;;;;;;;5.77;3.50;;;;;;;;;;5057496;28;20211;-60
2023/05/03 02:23:46;;;;;;;4.70;3.33;;;;;;;;;;5057469;28;20207;-60
2023/05/03 02:26:14;;;;;;;5.63;3.80;;;;;;;;;;5057203;28;20218;-60
2023/05/03 02:28:42;;;;;;;4.60;3.30;;;;;;;;;;5057269;28;20616;-60
2023/05/03 02:31:11;;;;;;;6.97;3.67;;;;;;;;;;5057508;28;20225;-60
2023/05/03 02:33:41;;;;;;;5.60;3.53;;;;;;;;;;5057058;28;20207;-60
2023/05/03 02:36:09;;;;;;;5.77;3.93;;;;;;;;;;5056996;28;20226;-59
2023/05/03 02:38:37;;;;;;;4.50;3.53;;;;;;;;;;5057497;28;20245;-60
2023/05/03 02:41:05;;;;;;;4.83;3.67;;;;;;;;;;5059829;28;20238;-60
2023/05/03 02:43:33;;;;;;;4.20;3.70;;;;;;;;;;5060913;28;20253;-60
2023/05/03 02:46:01;;;;;;;4.03;3.43;;;;;;;;;;5060802;28;20233;-60
2023/05/03 02:48:29;;;;;;;4.70;4.20;;;;;;;;;;5060930;28;20203;-60
2023/05/03 02:50:58;;;;;;;4.27;3.60;;;;;;;;;;5060852;28;20276;-60
2023/05/03 02:53:26;;;;;;;6.00;3.93;;;;;;;;;;5060598;28;20207;-59
2023/05/03 02:55:54;;;;;;;5.30;3.73;;;;;;;;;;5060505;28;20400;-59
2023/05/03 02:58:22;;;;;;;4.93;3.87;;;;;;;;;;5061722;28;20733;-60
2023/05/03 03:00:50;;;;;;;5.63;3.97;;;;;;;;;;5060547;28;20211;-59
2023/05/03 03:03:18;;;;;;;5.53;4.43;;;;;;;;;;5060491;28;20221;-59
2023/05/03 03:05:46;;;;;;;4.27;3.80;;;;;;;;;;5060591;28;20222;-59
2023/05/03 03:08:15;;;;;;;4.10;3.70;;;;;;;;;;5060504;28;20674;-60
2023/05/03 03:10:43;;;;;;;4.97;3.80;;;;;;;;;;5060430;28;20230;-60
2023/05/03 03:13:11;;;;;;;5.30;4.03;;;;;;;;;;5060125;28;20238;-59
2023/05/03 03:15:39;;;;;;;4.73;3.97;;;;;;;;;;5060401;28;20233;-59
2023/05/03 03:18:07;;;;;;;5.57;4.07;;;;;;;;;;5060462;28;20203;-60
2023/05/03 03:20:35;;;;;;;4.63;3.40;;;;;;;;;;5060140;28;20250;-59
2023/05/03 03:23:17;;;;;;;4.00;3.70;;;;;;;;;;5060179;28;20566;-59
2023/05/03 03:25:44;;;;;;;5.30;3.87;;;;;;;;;;5049895;28;20231;-60
2023/05/03 03:28:12;;;;;;;4.10;3.70;;;;;;;;;;5060341;28;20215;-59
2023/05/03 03:30:40;;;;;;;5.63;4.40;;;;;;;;;;5060302;28;20241;-60
2023/05/03 03:33:08;;;;;;;5.10;4.00;;;;;;;;;;5060017;28;20335;-60
2023/05/03 03:35:36;;;;;;;6.30;5.00;;;;;;;;;;5059966;28;20234;-60
2023/05/03 03:38:04;;;;;;;5.37;4.47;;;;;;;;;;5059938;28;20348;-60
2023/05/03 03:40:34;;;;;;;4.70;4.20;;;;;;;;;;5059845;28;20214;-59
2023/05/03 03:43:02;;;;;;;6.93;4.10;;;;;;;;;;5059831;28;20206;-60
2023/05/03 03:45:30;;;;;;;5.43;4.23;;;;;;;;;;5059684;28;20586;-60
2023/05/03 03:47:58;;;;;;;6.47;4.27;;;;;;;;;;5059721;28;20609;-60
2023/05/03 03:50:26;;;;;;;5.70;4.57;;;;;;;;;;5059669;28;20245;-59
2023/05/03 03:52:54;;;;;;;5.03;4.07;;;;;;;;;;5059888;28;20238;-61
2023/05/03 03:55:22;;;;;;;4.70;4.30;;;;;;;;;;5059665;28;20270;-60
2023/05/03 03:57:51;;;;;;;8.23;4.20;;;;;;;;;;5059552;28;20238;-60
2023/05/03 04:00:19;;;;;;;4.50;4.07;;;;;;;;;;5059779;28;20290;-59
2023/05/03 04:02:47;;;;;;;6.57;4.40;;;;;;;;;;5059336;28;20238;-60
2023/05/03 04:05:16;;;;;;;6.17;4.13;;;;;;;;;;5059663;28;20273;-59
2023/05/03 04:07:44;;;;;;;6.57;4.60;;;;;;;;;;5059289;28;20211;-59
2023/05/03 04:10:12;;;;;;;5.20;4.40;;;;;;;;;;5059398;28;20235;-59
2023/05/03 04:12:40;;;;;;;6.47;4.13;;;;;;;;;;5059223;28;20211;-59
2023/05/03 04:15:10;;;;;;;5.40;4.90;;;;;;;;;;5059449;28;20333;-59
2023/05/03 04:17:38;;;;;;;6.97;4.43;;;;;;;;;;5059053;28;20199;-59
2023/05/03 04:20:09;;;;;;;5.13;4.27;;;;;;;;;;5058940;28;20288;-59
2023/05/03 04:22:38;;;;;;;6.47;4.50;;;;;;;;;;5059292;28;20257;-59
2023/05/03 04:25:08;;;;;;;5.80;5.07;;;;;;;;;;5059386;28;20262;-62
2023/05/03 04:27:37;;;;;;;6.10;4.47;;;;;;;;;;5058681;28;20543;-62
2023/05/03 04:33:28;;;;;;;7.10;4.47;;;;;;;;;;5058788;28;20548;-62
2023/05/03 04:35:56;;;;;;;5.70;4.47;;;;;;;;;;5058670;28;20265;-62
2023/05/03 04:38:24;;;;;;;6.00;4.60;;;;;;;;;;5058784;28;20709;-62
2023/05/03 04:40:53;;;;;;;6.17;4.73;;;;;;;;;;5058496;28;20227;-62
2023/05/03 04:43:22;;;;;;;7.30;5.07;;;;;;;;;;5058633;28;20206;-62
2023/05/03 04:45:51;;;;;;;5.10;4.47;;;;;;;;;;5058816;28;20227;-62
2023/05/03 04:48:19;;;;;;;9.13;5.90;;;;;;;;;;5058691;28;20226;-62
2023/05/03 04:50:49;;;;;;;6.63;5.47;;;;;;;;;;5058766;28;20211;-62
2023/05/03 04:53:16;;;;;;;6.20;5.03;;;;;;;;;;5058324;28;20238;-62
2023/05/03 04:55:46;;;;;;;6.43;4.70;;;;;;;;;;5058320;28;20249;-62
2023/05/03 04:58:14;;;;;;;6.37;5.00;;;;;;;;;;5059540;28;20199;-62
2023/05/03 05:00:42;;;;;;;6.97;5.03;;;;;;;;;;5060140;28;20198;-62
2023/05/03 05:03:10;;;;;;;9.33;4.77;;;;;;;;;;5049667;28;20203;-62
2023/05/03 05:05:38;;;;;;;6.77;4.90;;;;;;;;;;5038758;28;20227;-61
2023/05/03 05:08:08;;;;;;;8.00;5.30;;;;;;;;;;5041775;28;20235;-62
2023/05/03 05:10:37;;;;;;;6.40;4.80;;;;;;;;;;5037873;28;20204;-62
2023/05/03 05:13:05;;;;;;;7.97;4.87;;;;;;;;;;5037885;28;20214;-62
2023/05/03 05:15:33;;;;;;;6.20;4.80;;;;;;;;;;5038057;28;20728;-61
2023/05/03 05:18:01;;;;;;;6.30;5.00;;;;;;;;;;5037871;28;20227;-62
2023/05/03 05:23:59;;;;;;;11.17;6.00;;;;;;;;;;5057255;28;20205;-62
2023/05/03 05:26:27;;;;;;;5.33;4.60;;;;;;;;;;5057457;28;20222;-62
2023/05/03 05:31:54;;;;;;;7.57;5.27;;;;;;;;;;5020710;28;20263;-61
2023/05/03 05:34:22;;;;;;;10.23;5.07;;;;;;;;;;5057470;28;20213;-62
2023/05/03 05:36:51;;;;;;;6.00;4.90;;;;;;;;;;5057228;28;20317;-62
2023/05/03 05:39:22;;;;;;;6.27;4.93;;;;;;;;;;5057308;28;20234;-62
2023/05/03 05:41:50;;;;;;;6.23;5.03;;;;;;;;;;5057341;28;20207;-62
2023/05/03 05:44:18;;;;;;;6.47;5.17;;;;;;;;;;5057570;28;20207;-62
2023/05/03 05:46:46;;;;;;;6.60;4.57;;;;;;;;;;5057233;28;20873;-62
2023/05/03 05:49:14;;;;;;;7.67;5.50;;;;;;;;;;5057243;28;20273;-62
2023/05/03 05:51:43;;;;;;;5.90;5.10;;;;;;;;;;5057479;28;20217;-62
2023/05/03 05:54:11;;;;;;;11.07;5.27;;;;;;;;;;5057114;28;20203;-60
2023/05/03 05:56:41;;;;;;;6.70;5.10;;;;;;;;;;5053125;28;20234;-60
2023/05/03 05:59:09;;;;;;;8.30;4.87;;;;;;;;;;5049338;28;20199;-60
2023/05/03 06:01:40;;;;;;;7.53;6.20;;;;;;;;;;5050820;28;20206;-60
2023/05/03 06:04:08;;;;;;;7.83;5.57;;;;;;;;;;5040089;28;20215;-60
2023/05/03 06:06:36;;;;;;;11.30;5.63;;;;;;;;;;5037567;28;20223;-60
2023/05/03 06:09:04;;;;;;;9.40;5.67;;;;;;;;;;5037458;28;20223;-60
2023/05/03 06:11:51;;;;;;;8.90;6.17;;;;;;;;;;5045348;28;20293;-60
2023/05/03 06:14:19;;;;;;;7.13;5.33;;;;;;;;;;5058818;28;20276;-60
2023/05/03 06:16:47;;;;;;;7.83;5.60;;;;;;;;;;5061463;28;20230;-60
2023/05/03 06:19:15;;;;;;;7.60;4.97;;;;;;;;;;5055295;28;20231;-59
2023/05/03 06:21:43;;;;;;;6.40;5.17;;;;;;;;;;5059534;28;20217;-60
2023/05/03 06:24:11;;;;;;;7.97;6.33;;;;;;;;;;5057819;28;20199;-60
2023/05/03 06:26:39;;;;;;;5.97;5.30;;;;;;;;;;5060904;28;20321;-60
2023/05/03 06:29:09;;;;;;;6.63;5.30;;;;;;;;;;5061385;28;20216;-59
2023/05/03 06:31:37;;;;;;;5.50;5.00;;;;;;;;;;5061073;28;20574;-60
2023/05/03 06:34:05;;;;;;;10.33;5.30;;;;;;;;;;5060911;28;20731;-60
2023/05/03 06:36:36;;;;;;;7.73;4.50;;;;;;;;;;5060921;28;20226;-60
2023/05/03 06:39:04;;;;;;;6.27;4.87;;;;;;;;;;5060913;28;20206;-60
2023/05/03 06:41:32;;;;;;;8.20;5.43;;;;;;;;;;5060777;28;20654;-59
2023/05/03 06:44:00;;;;;;;9.57;5.63;;;;;;;;;;5056486;28;20661;-60
2023/05/03 06:46:30;;;;;;;6.60;5.33;;;;;;;;;;5053770;28;20233;-60
2023/05/03 06:48:58;;;;;;;6.20;5.37;;;;;;;;;;5058658;28;20289;-60
2023/05/03 06:51:28;;;;;;;7.37;4.83;;;;;;;;;;5057502;28;20284;-60
2023/05/03 06:53:56;;;;;;;7.93;5.50;;;;;;;;;;5055036;28;20226;-60
2023/05/03 06:56:24;;;;;;;8.13;5.33;;;;;;;;;;5060037;28;20246;-60
2023/05/03 06:58:53;;;;;;;8.10;5.07;;;;;;;;;;5056873;28;20309;-60
2023/05/03 07:01:22;;;;;;;8.70;5.27;;;;;;;;;;5060478;28;20572;-60
2023/05/03 07:03:51;;;;;;;9.70;4.93;;;;;;;;;;5058277;28;20234;-60
2023/05/03 07:06:21;;;;;;;8.33;6.43;;;;;;;;;;5056287;28;20301;-60
2023/05/03 07:08:50;;;;;;;8.87;5.77;;;;;;;;;;5058084;28;20199;-60
2023/05/03 07:11:18;;;;;;;6.20;5.43;;;;;;;;;;5056252;28;20202;-59
2023/05/03 07:13:46;;;;;;;7.90;5.03;;;;;;;;;;5051302;28;20213;-60
2023/05/03 07:16:14;;;;;;;7.70;5.23;;;;;;;;;;5055870;28;20218;-60
2023/05/03 07:18:42;;;;;;;8.77;5.40;;;;;;;;;;5059879;28;20254;-61
2023/05/03 07:21:12;;;;;;;7.03;5.90;;;;;;;;;;5060274;28;20227;-60
2023/05/03 07:23:40;;;;;;;7.93;5.47;;;;;;;;;;5059800;28;20206;-60
2023/05/03 07:26:08;;;;;;;8.83;5.47;;;;;;;;;;5058955;28;20273;-60
2023/05/03 07:28:36;;;;;;;8.90;5.43;;;;;;;;;;5058654;28;20195;-60
2023/05/03 07:31:04;;;;;;;7.43;5.40;;;;;;;;;;5042186;28;20203;-60
2023/05/03 07:33:34;;;;;;;7.67;5.23;;;;;;;;;;5055176;28;20301;-60
2023/05/03 07:36:02;;;;;;;6.40;4.80;;;;;;;;;;5059457;28;20251;-60
2023/05/03 07:38:32;;;;;;;7.50;5.70;;;;;;;;;;5059330;28;20261;-60
2023/05/03 07:41:00;;;;;;;9.13;5.67;;;;;;;;;;5051061;28;20713;-60
2023/05/03 07:43:28;;;;;;;7.67;5.13;;;;;;;;;;5055503;28;20581;-60
2023/05/03 07:45:56;;;;;;;6.87;5.10;;;;;;;;;;5054135;28;20394;-60
2023/05/03 07:48:25;;;;;;;6.40;5.20;;;;;;;;;;5059685;28;20202;-61
2023/05/03 07:50:53;;;;;;;5.63;4.60;;;;;;;;;;5059931;28;20203;-61
2023/05/03 07:53:21;;;;;;;7.47;5.20;;;;;;;;;;5062683;28;20209;-60
2023/05/03 07:55:53;;;;;;;7.57;5.40;;;;;;;;;;5057445;28;20564;-60
2023/05/03 07:58:21;;;;;;;8.13;5.20;;;;;;;;;;5043036;28;20261;-60
2023/05/03 08:01:05;;;;;;;7.03;5.20;;;;;;;;;;5059688;28;20207;-60
2023/05/03 08:03:33;;;;;;;6.57;4.77;;;;;;;;;;5059582;28;20210;-60
2023/05/03 08:06:02;;;;;;;9.20;5.50;;;;;;;;;;5056348;28;20293;-59
2023/05/03 08:08:31;;;;;;;6.23;5.20;;;;;;;;;;5049840;28;20279;-60
2023/05/03 08:11:15;;;;;;;7.77;5.40;;;;;;;;;;5056057;28;20731;-60
2023/05/03 08:13:43;;;;;;;5.97;5.20;;;;;;;;;;5048107;28;20214;-60
2023/05/03 08:16:13;;;;;;;6.33;4.83;;;;;;;;;;5054095;28;20317;-59
2023/05/03 08:18:41;;;;;;;6.30;4.87;;;;;;;;;;5058429;28;20317;-61
2023/05/03 08:21:12;;;;;;;9.23;5.83;;;;;;;;;;5058760;28;20211;-60
2023/05/03 08:23:40;;;;;;;7.20;5.27;;;;;;;;;;5058862;28;20555;-60
2023/05/03 08:26:08;;;;;;;6.73;5.47;;;;;;;;;;5058426;28;20309;-60
2023/05/03 08:28:38;;;;;;;6.43;5.53;;;;;;;;;;5055895;28;20195;-60
2023/05/03 08:31:06;;;;;;;8.23;5.50;;;;;;;;;;5059066;28;20211;-60
2023/05/03 08:33:34;;;;;;;10.70;5.83;;;;;;;;;;5059023;28;20642;-60
2023/05/03 08:36:02;;;;;;;6.87;5.33;;;;;;;;;;5058737;28;20280;-60
2023/05/03 08:38:31;;;;;;;6.97;5.00;;;;;;;;;;5057821;28;20227;-60
2023/05/03 08:41:03;;;;;;;5.90;5.10;;;;;;;;;;5058747;28;20215;-60
2023/05/03 08:43:33;;;;;;;6.43;5.40;;;;;;;;;;5055998;28;20208;-60
2023/05/03 08:46:03;;;;;;;9.47;5.17;;;;;;;;;;5051534;28;20245;-59
2023/05/03 08:48:31;;;;;;;7.17;5.17;;;;;;;;;;5052196;28;20590;-60
2023/05/03 08:51:00;;;;;;;5.27;4.63;;;;;;;;;;5055245;28;20245;-60
2023/05/03 08:53:28;;;;;;;9.10;5.07;;;;;;;;;;5054488;28;20285;-60
2023/05/03 08:55:56;;;;;;;6.87;4.33;;;;;;;;;;5053725;28;20715;-60
2023/05/03 08:58:24;;;;;;;8.73;4.83;;;;;;;;;;5055158;28;20230;-60
2023/05/03 09:00:51;;;;;;;5.13;4.63;;;;;;;;;;5053461;28;20203;-60
2023/05/03 09:03:24;;;;;;;9.73;5.23;;;;;;;;;;5055712;28;20199;-61
2023/05/03 09:05:52;;;;;;;5.23;3.70;;;;;;;;;;5053482;28;20225;-63
2023/05/03 09:08:21;;;;;;;4.77;4.07;;;;;;;;;;5054832;28;20262;-61
2023/05/03 09:10:49;;;;;;;6.57;4.63;;;;;;;;;;5051561;28;20574;-62
2023/05/03 09:13:17;;;;;;;5.60;4.10;;;;;;;;;;5053474;28;20203;-61
2023/05/03 09:15:52;;;;;;;6.20;3.93;;;;;;;;;;5054696;28;20227;-61
2023/05/03 09:18:22;;;;;;;5.27;4.40;;;;;;;;;;5054086;28;20230;-61
2023/05/03 09:20:51;;;;;;;6.37;4.20;;;;;;;;;;5055190;28;20270;-61
2023/05/03 09:23:28;;;;;;;5.40;4.20;;;;;;;;;;5052925;28;20199;-62
2023/05/03 09:25:57;;;;;;;5.07;3.83;;;;;;;;;;5053703;28;20233;-62
2023/05/03 09:28:25;;;;;;;4.90;3.97;;;;;;;;;;5056211;28;20564;-62
2023/05/03 09:31:04;;;;;;;5.47;3.60;;;;;;;;;;5053994;28;20285;-62
2023/05/03 09:33:33;;;;;;;5.77;4.03;;;;;;;;;;5054753;28;20289;-63
2023/05/03 09:36:02;;;;;;;5.33;4.03;;;;;;;;;;5052078;28;20226;-63
2023/05/03 09:38:32;;;;;;;6.10;3.90;;;;;;;;;;5056375;28;20722;-62
2023/05/03 09:41:00;;;;;;;4.97;3.97;;;;;;;;;;5054829;28;20256;-63
2023/05/03 09:43:28;;;;;;;5.00;4.13;;;;;;;;;;5055053;28;20209;-63
2023/05/03 09:46:08;;;;;;;5.73;4.30;;;;;;;;;;5053300;28;20232;-63
2023/05/03 09:48:38;;;;;;;5.17;4.50;;;;;;;;;;5055817;28;20705;-63
2023/05/03 09:51:06;;;;;;;3.63;3.37;;;;;;;;;;5055850;28;20290;-63
2023/05/03 09:53:34;;;;;;;5.73;3.50;;;;;;;;;;5056779;28;20195;-63
2023/05/03 09:56:03;;;;;;;4.13;3.57;;;;;;;;;;5054207;28;20224;-63
2023/05/03 09:58:33;;;;;;;3.93;3.53;;;;;;;;;;5053718;28;20203;-64
2023/05/03 10:01:04;;;;;;;9.03;3.50;;;;;;;;;;5056506;28;20199;-65
2023/05/03 10:03:34;;;;;;;6.00;4.33;;;;;;;;;;5054847;28;20631;-65
2023/05/03 10:06:06;;;;;;;4.77;4.10;;;;;;;;;;5052934;28;20218;-63
2023/05/03 10:08:35;;;;;;;4.23;3.10;;;;;;;;;;5053344;28;20249;-64
2023/05/03 10:11:03;;;;;;;7.93;4.00;;;;;;;;;;5054487;28;20199;-64
2023/05/03 10:13:31;;;;;;;6.60;4.03;;;;;;;;;;5054650;28;20206;-63
2023/05/03 10:16:02;;;;;;;4.03;3.73;;;;;;;;;;5054489;28;20694;-64
2023/05/03 10:18:32;;;;;;;4.70;4.20;;;;;;;;;;5051611;28;20199;-63
2023/05/03 10:21:02;;;;;;;4.50;4.10;;;;;;;;;;5050894;28;20234;-63
2023/05/03 10:23:31;;;;;;;5.23;4.30;;;;;;;;;;5051833;28;20201;-63
2023/05/03 10:26:15;;;;;;;5.73;3.97;;;;;;;;;;5045021;28;20230;-63
2023/05/03 10:28:45;;;;;;;4.27;3.70;;;;;;;;;;5056592;28;20286;-64
2023/05/03 10:31:31;;;;;;;5.20;3.63;;;;;;;;;;5054820;28;20207;-63
2023/05/03 10:34:00;;;;;;;5.73;4.33;;;;;;;;;;5053507;28;20207;-63
2023/05/03 10:36:28;;;;;;;8.00;3.87;;;;;;;;;;5055702;28;20226;-63
2023/05/03 10:39:15;;;;;;;8.13;3.60;;;;;;;;;;5050333;28;20227;-63
2023/05/03 10:41:43;;;;;;;5.63;3.67;;;;;;;;;;5053570;28;20207;-63
2023/05/03 10:44:25;;;;;;;5.23;3.90;;;;;;;;;;5056309;28;20214;-63
2023/05/03 10:46:53;;;;;;;4.00;3.60;;;;;;;;;;5055571;28;20227;-62
2023/05/03 10:49:22;;;;;;;7.17;3.47;;;;;;;;;;5056010;28;20286;-62
2023/05/03 10:51:50;;;;;;;4.60;3.20;;;;;;;;;;5056698;28;20286;-62
2023/05/03 10:54:20;;;;;;;3.87;2.80;;;;;;;;;;5063947;28;20332;-62
2023/05/03 10:56:55;;;;;;;3.30;3.00;;;;;;;;;;5036519;28;20289;-61
2023/05/03 10:59:23;;;;;;;3.10;2.73;;;;;;;;;;5048094;28;20227;-62
2023/05/03 11:01:52;;;;;;;3.20;2.90;;;;;;;;;;5058646;28;20721;-62
2023/05/03 11:04:27;;;;;;;4.27;3.30;;;;;;;;;;5060163;28;20206;-62
2023/05/03 11:06:59;;;;;;;3.57;2.90;;;;;;;;;;5060153;28;20226;-62
2023/05/03 11:09:34;;;;;;;2.87;2.60;;;;;;;;;;5060404;28;20198;-62
2023/05/03 11:12:06;;;;;;;3.10;2.70;;;;;;;;;;5060290;28;20325;-62
2023/05/03 11:14:34;;;;;;;13.77;3.40;;;;;;;;;;5060049;28;20611;-62
2023/05/03 11:17:02;;;;;;;2.67;2.47;;;;;;;;;;5060017;28;20258;-62
2023/05/03 11:19:30;;;;;;;3.13;2.77;;;;;;;;;;5059741;28;20238;-62
2023/05/03 11:21:58;;;;;;;4.17;3.77;;;;;;;;;;5060029;28;20236;-62
2023/05/03 11:24:27;;;;;;;7.87;3.40;;;;;;;;;;5055267;28;20206;-62
2023/05/03 11:26:57;;;;;;;3.40;3.10;;;;;;;;;;5059733;28;20223;-63
2023/05/03 11:29:25;;;;;;;4.57;3.10;;;;;;;;;;5059672;28;20234;-62
2023/05/03 11:31:53;;;;;;;4.00;3.60;;;;;;;;;;5059903;28;20202;-62
2023/05/03 11:34:21;;;;;;;4.20;3.70;;;;;;;;;;5059397;28;20210;-62
2023/05/03 11:36:50;;;;;;;4.50;3.80;;;;;;;;;;5059593;28;20290;-62
2023/05/03 11:39:18;;;;;;;4.00;3.50;;;;;;;;;;5059700;28;20207;-62
2023/05/03 11:42:03;;;;;;;3.33;3.00;;;;;;;;;;5059945;28;20206;-62
2023/05/03 11:44:31;;;;;;;3.70;2.97;;;;;;;;;;5059539;28;20249;-62
2023/05/03 11:46:59;;;;;;;5.33;3.00;;;;;;;;;;5059313;28;20234;-62
2023/05/03 11:49:28;;;;;;;4.50;3.03;;;;;;;;;;5059487;28;20219;-62
2023/05/03 11:51:56;;;;;;;2.60;2.40;;;;;;;;;;5059597;28;20298;-62
2023/05/03 11:54:26;;;;;;;6.53;2.60;;;;;;;;;;5056356;28;20691;-62
2023/05/03 11:56:58;;;;;;;3.00;2.70;;;;;;;;;;5039085;28;20725;-62
2023/05/03 11:59:38;;;;;;;3.13;2.80;;;;;;;;;;5051395;28;20217;-62
2023/05/03 12:02:08;;;;;;;3.43;3.13;;;;;;;;;;5059028;28;20649;-62
2023/05/03 12:04:39;;;;;;;4.60;3.53;;;;;;;;;;5059249;28;20213;-62
2023/05/03 12:07:09;;;;;;;3.27;2.97;;;;;;;;;;5058981;28;20297;-62
2023/05/03 12:09:38;;;;;;;3.63;3.03;;;;;;;;;;5059565;28;20289;-62
2023/05/03 12:12:07;;;;;;;4.07;3.20;;;;;;;;;;5058791;28;20207;-62
2023/05/03 12:14:58;;;;;;;3.10;2.80;;;;;;;;;;5059082;28;20206;-62
2023/05/03 12:17:36;;;;;;;2.73;2.53;;;;;;;;;;5058780;28;20211;-62
2023/05/03 12:20:18;;;;;;;5.77;2.70;;;;;;;;;;5058683;28;20234;-62
2023/05/03 12:22:50;;;;;;;6.10;3.10;;;;;;;;;;5059038;28;20215;-62
2023/05/03 12:25:22;;;;;;;4.13;2.87;;;;;;;;;;5058652;28;20261;-62
2023/05/03 12:27:54;;;;;;;3.00;2.80;;;;;;;;;;5059053;28;20210;-62
2023/05/03 12:30:43;;;;;;;6.43;2.90;;;;;;;;;;5058896;28;20207;-63
2023/05/03 12:33:14;;;;;;;4.47;2.90;;;;;;;;;;5058567;28;20207;-62
2023/05/03 12:35:43;;;;;;;3.60;2.83;;;;;;;;;;5058801;28;20230;-62
2023/05/03 12:38:15;;;;;;;3.00;2.80;;;;;;;;;;5058641;28;20681;-62
2023/05/03 12:40:45;;;;;;;3.17;2.70;;;;;;;;;;5058490;28;20235;-63
2023/05/03 12:43:14;;;;;;;3.80;3.03;;;;;;;;;;5058511;28;20206;-62
2023/05/03 12:45:44;;;;;;;2.23;2.07;;;;;;;;;;5058596;28;20314;-62
2023/05/03 12:48:23;;;;;;;2.77;2.57;;;;;;;;;;5058435;28;20577;-62
2023/05/03 12:50:53;;;;;;;2.80;2.47;;;;;;;;;;5058627;28;20269;-62
2023/05/03 12:53:41;;;;;;;2.63;2.43;;;;;;;;;;5058279;28;20214;-62
2023/05/03 12:56:14;;;;;;;2.33;2.13;;;;;;;;;;5057980;28;20571;-62
2023/05/03 12:58:43;;;;;;;2.13;2.03;;;;;;;;;;5058099;28;20203;-62
2023/05/03 13:01:32;;;;;;;3.60;2.60;;;;;;;;;;5058263;28;20227;-62
2023/05/03 13:04:03;;;;;;;2.43;2.23;;;;;;;;;;5058414;28;20215;-62
2023/05/03 13:06:51;;;;;;;3.90;3.03;;;;;;;;;;5058229;28;20305;-62
2023/05/03 13:09:26;;;;;;;3.60;2.47;;;;;;;;;;5058048;28;20547;-62
2023/05/03 13:12:16;;;;;;;5.93;2.70;;;;;;;;;;5057853;28;20273;-62
2023/05/03 13:14:44;;;;;;;2.80;2.60;;;;;;;;;;5058062;28;20206;-62
2023/05/03 13:17:14;;;;;;;4.40;2.40;;;;;;;;;;5057740;28;20229;-62
2023/05/03 13:19:42;;;;;;;2.60;2.40;;;;;;;;;;5057547;28;20277;-62
2023/05/03 13:22:11;;;;;;;2.90;2.70;;;;;;;;;;5058158;28;20226;-62
2023/05/03 13:24:39;;;;;;;4.40;2.77;;;;;;;;;;5062428;28;20202;-62
2023/05/03 13:27:07;;;;;;;2.53;2.13;;;;;;;;;;5060629;28;20219;-62
2023/05/03 13:29:35;;;;;;;2.33;1.90;;;;;;;;;;5058139;28;20207;-61
2023/05/03 13:32:03;;;;;;;3.13;1.70;;;;;;;;;;5057633;28;20202;-62
2023/05/03 13:34:32;;;;;;;2.03;1.93;;;;;;;;;;5057988;28;20207;-62
2023/05/03 13:37:01;;;;;;;3.30;2.00;;;;;;;;;;5057736;28;20245;-62
2023/05/03 13:39:29;;;;;;;2.23;1.90;;;;;;;;;;5057792;28;20612;-62
2023/05/03 13:41:57;;;;;;;1.97;1.87;;;;;;;;;;5057633;28;20231;-62
2023/05/03 13:44:25;;;;;;;2.60;2.13;;;;;;;;;;5057745;28;20577;-62
2023/05/03 13:46:53;;;;;;;3.37;2.20;;;;;;;;;;5057389;28;20725;-62
2023/05/03 13:49:21;;;;;;;2.00;1.90;;;;;;;;;;5057671;28;20681;-62
2023/05/03 13:51:50;;;;;;;2.30;2.00;;;;;;;;;;5057752;28;20291;-62
2023/05/03 13:54:18;;;;;;;2.20;1.87;;;;;;;;;;5057793;28;20209;-62
2023/05/03 13:56:46;;;;;;;1.90;1.80;;;;;;;;;;5057156;28;20223;-62
2023/05/03 13:59:14;;;;;;;2.33;2.00;;;;;;;;;;5057767;28;20213;-62
2023/05/03 14:01:42;;;;;;;1.80;1.70;;;;;;;;;;5057389;28;20699;-62
2023/05/03 14:04:10;;;;;;;2.13;2.00;;;;;;;;;;5057734;28;20251;-62
2023/05/03 14:06:39;;;;;;;5.13;2.57;;;;;;;;;;5057700;28;20281;-62
2023/05/03 14:09:10;;;;;;;2.20;2.10;;;;;;;;;;5057318;28;20207;-62
2023/05/03 14:15:02;;;;;;;2.17;2.07;;;;;;;;;;5057306;28;20191;-62
2023/05/03 14:17:33;;;;;;;2.37;2.17;;;;;;;;;;5057044;28;20258;-63
2023/05/03 14:20:04;;;;;;;2.40;2.00;;;;;;;;;;5057153;28;20237;-62
2023/05/03 14:22:33;;;;;;;3.07;1.83;;;;;;;;;;5057088;28;20260;-63
2023/05/03 14:25:03;;;;;;;4.43;2.03;;;;;;;;;;5057165;28;20297;-63
2023/05/03 14:27:34;;;;;;;2.00;1.90;;;;;;;;;;5057204;28;20209;-62
2023/05/03 14:30:06;;;;;;;3.00;2.10;;;;;;;;;;5057497;28;20265;-62
2023/05/03 14:32:34;;;;;;;2.97;1.97;;;;;;;;;;5057208;28;20209;-62
2023/05/03 14:35:03;;;;;;;2.43;2.23;;;;;;;;;;5057342;28;20221;-63
2023/05/03 14:37:32;;;;;;;3.03;1.87;;;;;;;;;;5060900;28;20275;-62
2023/05/03 14:40:05;;;;;;;2.20;1.83;;;;;;;;;;5061135;28;20242;-62
2023/05/03 14:42:34;;;;;;;1.90;1.77;;;;;;;;;;5062490;28;20219;-62
2023/05/03 14:45:02;;;;;;;2.17;1.97;;;;;;;;;;5056217;28;20248;-62
2023/05/03 14:47:31;;;;;;;1.90;1.80;;;;;;;;;;5060973;28;20219;-62
2023/05/03 14:49:59;;;;;;;5.93;2.00;;;;;;;;;;5061189;28;20211;-62
2023/05/03 14:52:27;;;;;;;5.03;2.27;;;;;;;;;;5060809;28;20230;-62
2023/05/03 14:54:55;;;;;;;3.07;2.10;;;;;;;;;;5061108;28;20206;-62
2023/05/03 14:57:24;;;;;;;1.87;1.73;;;;;;;;;;5060678;28;20712;-63
2023/05/03 14:59:52;;;;;;;2.23;2.03;;;;;;;;;;5060658;28;20210;-62
2023/05/03 15:02:21;;;;;;;2.87;2.13;;;;;;;;;;5060490;28;20240;-62
2023/05/03 15:04:49;;;;;;;3.33;2.40;;;;;;;;;;5060896;28;20291;-62
2023/05/03 15:07:17;;;;;;;2.70;2.50;;;;;;;;;;5060884;28;20257;-62
2023/05/03 15:09:46;;;;;;;2.27;2.17;;;;;;;;;;5060480;28;20690;-62
2023/05/03 15:12:14;;;;;;;2.30;2.07;;;;;;;;;;5060499;28;20257;-62
2023/05/03 15:14:44;;;;;;;2.27;2.13;;;;;;;;;;5060403;28;20222;-62
2023/05/03 15:17:12;;;;;;;5.57;2.23;;;;;;;;;;5060303;28;20574;-62
2023/05/03 15:20:09;;;;;;;3.07;2.40;;;;;;;;;;5053293;28;20257;-62